Etusivu
METAR-TAF:

METAR-TAF

Lentoasemat :

Libreville, Gabon

Leveyspiiri: 00-27N, Pituuspiiri: 009-25E, korkeus merenpinnasta: 12 m

Tämänhetkinen sää

Tämä raportti tehtiin 31 minuuttia sitten, kello 04.00 UTC
Tuuli 9 kn etelästä/kaakosta
Lämpötila 24°C
Kosteus 78%
Ilmanpaine 1014 hPa
Näkyvyys: 9000 m
Muutamia pilviä 1200 ft:n korkeudessa

METAR: FOOL 220400Z 15009KT 9000 FEW012 24/20 Q1014 NOSIG

Aika: 05:31 (04:31 UTC)

Sääennuste

Tämä raportti tehtiin 5 tuntia ja 31 minuuttia sitten, kello 23.00 UTC
Ennuste voimassa 22. päivästä klo 00 UTC - 23. päivään klo 06 UTC
Tuuli 7 kn etelästä
Näkyvyys 10 km tai enemmän
Hajanaisia pilviä 1000 ft:n korkeudessa
Hajonneita pilviä 3000 ft:n korkeudessa

TAF: FOOL 212300Z 2200/2306 19007KT 9999 SCT010 BKN030

Säähavainnot ja -ennusteet yli 4000 lentoasemalta (METAR- ja TAF-raportit).

Käytössä olevat sääasemat on merkitty karttaan keltaisilla ja punaisilla pisteillä.

Aseta hiiri pisteen päälle nähdäksesi sääaseman nimen.

Klikkaa sitten nähdäksesi säähavainnot ja -ennusteet.

Kartan vaihtaminen: klikkaa mustalla rastilla varustettuja vihreitä pisteitä, niin voit zoomata sisään; viivalla varustettua vihreää pistettä, niin voit zoomata ulos tai vihreitä nuolia, niin pääset viereisille kartoille.


METAR-TAF: